IXA weather

Agartala Airport
Agartala, Tripura, India

Public forecast

Using degrees Celsius for public forecast. Weather courtesy of forecast.io.

METAR (pilot weather report)

Report is more than 2 hours old.

Retrieved 2019/08/18 14:00 UTC (5 hours ago):

VEAT 181400Z 00000KT 5000 BR FEW020 28/25 Q1006 NOSIG

TAF (pilot weather forecast)

Forecast is more than 12 hours old.

Retrieved 2013/07/19 12:00 UTC (6 years ago):

TAF VEAT 190900Z 1912/1921 16008KT 5000 HZ SCT018 FEW030CB BKN100 TEMPO 1912/1921 3000 -TSRA SCT015 FEW025CB OVC090